Latest Weather Observations for Barimunya

IDW60801

Issued at 5:03 pm WST Thursday 27 April 2017 (issued every 30 minutes, with the page automatically refreshed every 10 minutes)

About weather observations | Map of weather stations | Latest weather observations for WA | Other Formats
Station Details ID: 505053 Name: BARIMUNYA Lat: -22.67 Lon: 119.16 Height: 629.17 m
Data from the previous 72 hours. | See also: Recent months for locations in Western Australia
Date/Time
WST
Temp
°C
App
Temp
°C
Dew
Point
°C
Rel
Hum
%
Delta-T
°C
Wind Press
QNH
hPa
Press
MSL
hPa
Rain since
9am
mm
Dir  Spd
km/h
Gust
km/h
Spd
kts
Gust
kts
27/05:00pm 24.5 20.6 8.5 36 8.8 ESE 19 26 10 14 1019.8 1016.0 0.0
27/04:30pm 25.0 20.9 8.5 35 9.1 SE 20 24 11 13 1019.7 1015.8 0.0
27/04:00pm 25.4 21.4 8.4 34 9.4 ESE 19 24 10 13 1019.6 1015.7 0.0
27/03:30pm 25.7 21.6 8.7 34 9.5 SE 20 28 11 15 1019.5 1015.6 0.0
27/03:00pm 26.2 22.8 9.1 34 9.6 SE 17 26 9 14 1019.5 1015.6 0.0
27/02:30pm 25.3 21.2 8.7 35 9.2 SE 20 26 11 14 1019.5 1015.6 0.0
27/02:00pm 25.4 21.5 8.8 35 9.2 ESE 19 28 10 15 1019.7 1015.8 0.0
27/01:30pm 24.8 21.7 8.7 36 8.9 ESE 15 24 8 13 1020.0 1016.2 0.0
27/01:00pm 23.7 19.8 8.6 38 8.3 SE 19 28 10 15 1020.5 1016.7 0.0
27/12:30pm 23.8 19.9 8.6 38 8.4 ESE 19 28 10 15 1021.0 1017.1 0.0
27/12:00pm 23.8 19.9 8.6 38 8.3 SE 19 28 10 15 1021.4 1017.6 0.0
27/11:30am 22.7 18.0 7.7 38 8.1 ESE 22 32 12 17 1021.9 1018.1 0.0
27/11:00am 22.0 17.7 7.8 40 7.6 ESE 20 28 11 15 1022.5 1018.6 0.0
27/10:30am 22.0 17.3 7.8 40 7.6 SE 22 30 12 16 1023.1 1019.3 0.0
27/10:00am 21.6 16.8 7.4 40 7.5 SE 22 30 12 16 1023.4 1019.6 0.0
27/09:30am 20.7 15.9 7.3 42 7.1 SE 22 32 12 17 1023.4 1019.6 0.0
27/09:00am 20.5 15.7 7.2 42 7.0 ESE 22 32 12 17 1023.1 1019.3 0.0
27/08:30am 19.8 14.5 6.9 43 6.7 SE 24 33 13 18 1023.3 1019.5 0.0
27/08:00am 19.1 14.2 6.9 45 6.3 SE 22 30 12 16 1023.2 1019.4 0.0
27/07:30am 18.3 14.8 7.4 49 5.7 SE 15 20 8 11 1022.8 1019.0 0.0
27/07:00am 17.1 14.0 7.2 52 5.1 SE 13 19 7 10 1022.3 1018.5 0.0
27/06:30am 16.6 12.7 7.0 53 4.9 SE 17 20 9 11 1021.9 1018.1 0.0
27/06:00am 16.6 12.7 7.0 53 4.9 SE 17 20 9 11 1021.9 1018.1 0.0
27/05:30am 16.9 12.9 6.7 51 5.2 SE 17 20 9 11 1021.7 1017.9 0.0
27/05:00am 17.1 13.1 6.6 50 5.3 SE 17 20 9 11 1021.6 1017.8 0.0
27/04:30am 17.2 12.9 7.0 51 5.2 SE 19 22 10 12 1021.4 1017.6 0.0
27/04:00am 17.4 13.8 6.6 49 5.5 SE 15 19 8 10 1021.6 1017.8 0.0
27/03:30am 17.7 14.4 6.6 48 5.7 SE 13 17 7 9 1021.6 1017.8 0.0
27/03:00am 18.0 13.8 5.6 44 6.2 SE 17 20 9 11 1021.6 1017.8 0.0
27/02:30am 18.2 14.8 5.8 44 6.3 SE 13 19 7 10 1021.9 1018.1 0.0
27/02:00am 18.7 14.0 5.2 41 6.7 SE 19 26 10 14 1022.1 1018.3 0.0
27/01:30am 18.9 14.0 5.0 40 7.0 ESE 20 26 11 14 1022.2 1018.4 0.0
27/01:00am 19.4 14.5 5.1 39 7.2 ESE 20 28 11 15 1022.6 1018.7 0.0
27/12:30am 19.4 14.6 4.7 38 7.3 ESE 19 30 10 16 1022.7 1018.9 0.0
27/12:00am 19.4 15.2 5.5 40 7.0 ESE 17 26 9 14 1022.8 1019.0 0.0
 
Date/Time
WST
Temp
°C
App
Temp
°C
Dew
Point
°C
Rel
Hum
%
Delta-T
°C
Wind Press
QNH
hPa
Press
MSL
hPa
Rain since
9am
mm
Dir  Spd
km/h
Gust
km/h
Spd
kts
Gust
kts
26/11:30pm 19.5 15.0 6.3 42 6.8 SE 19 24 10 13 1022.8 1019.0 0.0
26/11:00pm 19.7 15.6 6.4 42 6.8 ESE 17 20 9 11 1023.1 1019.3 0.0
26/10:30pm 19.8 15.7 6.2 41 7.0 SE 17 26 9 14 1023.4 1019.6 0.0
26/10:00pm 20.4 15.3 6.0 39 7.4 ESE 22 30 12 16 1023.2 1019.4 0.0
26/09:30pm 20.5 16.6 8.5 46 6.5 ESE 19 26 10 14 1023.4 1019.6 0.0
26/09:00pm 20.5 17.6 9.7 50 5.9 SE 15 20 8 11 1023.0 1019.2 0.0
26/08:30pm 20.9 17.1 8.9 46 6.5 ESE 19 30 10 16 1022.6 1018.7 0.0
26/08:00pm 21.0 17.9 10.2 50 6.0 ESE 17 22 9 12 1022.5 1018.6 0.0
26/07:30pm 21.2 17.8 10.4 50 6.1 ESE 19 26 10 14 1021.9 1018.1 0.0
26/07:00pm 21.7 18.0 10.2 48 6.4 ESE 20 28 11 15 1021.4 1017.6 0.0
26/06:30pm 21.8 19.3 10.9 50 6.2 ESE 15 20 8 11 1021.0 1017.1 0.0
26/06:00pm 22.0 19.1 11.1 50 6.2 ESE 17 24 9 13 1020.6 1016.8 0.0
26/05:30pm 22.6 19.8 11.4 49 6.4 ESE 17 22 9 12 1020.2 1016.4 0.0
26/05:00pm 23.3 20.2 11.7 48 6.7 ESE 19 26 10 14 1020.0 1016.2 0.0
26/04:30pm 23.4 20.2 11.8 48 6.7 ESE 20 28 11 15 1019.7 1015.8 0.0
26/04:00pm 23.9 20.9 11.9 47 7.0 ESE 19 28 10 15 1019.5 1015.6 0.0
26/03:30pm 23.6 21.1 12.3 49 6.6 ESE 17 26 9 14 1019.3 1015.4 0.0
26/03:00pm 23.5 20.4 12.2 49 6.6 ESE 20 26 11 14 1019.3 1015.4 0.0
26/02:30pm 23.8 20.8 12.1 48 6.8 ESE 19 26 10 14 1019.3 1015.4 0.0
26/02:00pm 23.6 20.1 12.3 49 6.6 ESE 22 32 12 17 1019.5 1015.6 0.0
26/01:30pm 23.3 19.7 11.7 48 6.7 E 22 30 12 16 1019.8 1016.0 0.0
26/01:00pm 23.4 19.4 11.8 48 6.7 E 24 32 13 17 1019.9 1016.1 0.0
26/12:30pm 22.9 18.2 11.9 50 6.4 SE 28 37 15 20 1020.0 1016.2 0.0
26/12:00pm 22.6 17.8 11.7 50 6.3 SE 28 37 15 20 1020.8 1016.9 0.0
26/11:30am 22.5 18.5 11.9 51 6.1 ESE 24 35 13 19 1021.2 1017.4 0.0
26/11:00am 21.3 17.6 11.6 54 5.5 ESE 22 30 12 16 1021.7 1017.9 0.0
26/10:30am 20.7 16.2 11.3 55 5.3 SE 26 35 14 19 1022.0 1018.2 0.0
26/10:00am 19.7 13.5 11.5 59 4.6 SE 35 43 19 23 1022.2 1018.4 0.0
26/09:30am 19.8 15.6 12.3 62 4.3 SE 26 37 14 20 1022.6 1018.7 0.0
26/09:00am 19.3 14.3 12.1 63 4.1 SE 30 37 16 20 1022.7 1018.9 0.0
26/08:30am 19.4 15.7 12.7 65 3.9 SE 24 35 13 19 1022.9 1019.1 0.0
26/08:00am 18.7 15.0 12.7 68 3.5 SE 24 33 13 18 1022.5 1018.6 0.0
26/07:30am 18.6 15.7 13.0 70 3.2 SE 20 33 11 18 1022.3 1018.5 0.0
26/07:00am 18.4 15.3 13.3 72 3.0 SE 22 32 12 17 1021.9 1018.1 0.0
26/06:30am 18.4 15.7 13.5 73 2.9 SE 20 28 11 15 1021.5 1017.7 0.0
26/06:00am 18.5 15.1 13.8 74 2.8 SE 24 32 13 17 1021.1 1017.2 0.0
26/05:30am 18.8 15.5 13.9 73 2.9 SE 24 32 13 17 1020.8 1016.9 0.0
26/05:00am 18.6 15.3 14.1 75 2.7 SE 24 33 13 18 1020.8 1016.9 0.0
26/04:30am 18.7 15.9 14.2 75 2.7 ESE 22 30 12 16 1020.8 1016.9 0.0
26/04:00am 18.9 16.7 14.4 75 2.7 SE 19 28 10 15 1020.9 1017.0 0.0
26/03:30am 19.0 16.6 14.5 75 2.7 SE 20 28 11 15 1020.6 1016.8 0.0
26/03:00am 19.2 15.4 14.7 75 2.7 SE 28 37 15 20 1020.3 1016.5 0.0
26/02:30am 19.3 15.6 15.0 76 2.6 SE 28 37 15 20 1020.5 1016.7 0.0
26/02:00am 19.5 16.3 15.2 76 2.6 SE 26 32 14 17 1020.9 1017.0 0.0
26/01:30am 19.7 16.6 15.6 77 2.5 SE 26 39 14 21 1020.5 1016.7 0.0
26/01:00am 20.0 16.6 15.8 77 2.6 SE 28 39 15 21 1020.6 1016.8 0.0
26/12:30am 20.4 17.5 16.0 76 2.7 SE 26 35 14 19 1021.1 1017.2 0.0
26/12:00am 20.6 17.9 16.6 78 2.5 SE 26 35 14 19 1021.2 1017.4 0.0
 
Date/Time
WST
Temp
°C
App
Temp
°C
Dew
Point
°C
Rel
Hum
%
Delta-T
°C
Wind Press
QNH
hPa
Press
MSL
hPa
Rain since
9am
mm
Dir  Spd
km/h
Gust
km/h
Spd
kts
Gust
kts
25/11:30pm 20.7 17.6 16.5 77 2.6 SE 28 37 15 20 1021.0 1017.1 0.0
25/11:00pm 21.3 18.2 16.5 74 3.0 ESE 28 41 15 22 1020.9 1017.0 0.0
25/10:30pm 21.6 19.4 16.8 74 3.0 ESE 24 35 13 19 1020.9 1017.0 0.0
25/10:00pm 21.9 20.1 17.9 78 2.5 SE 24 33 13 18 1021.1 1017.2 0.0
25/09:30pm 22.0 20.3 18.0 78 2.6 SE 24 33 13 18 1020.6 1016.8 0.0
25/09:00pm 22.1 20.4 18.1 78 2.6 SE 24 32 13 17 1020.6 1016.8 0.0
25/08:30pm 22.3 21.4 18.3 78 2.6 SE 20 30 11 16 1020.6 1016.8 0.0
25/08:00pm 22.2 22.1 18.8 81 2.2 ESE 17 24 9 13 1020.0 1016.2 0.0
25/07:30pm 22.2 23.0 19.0 82 2.1 SE 13 15 7 8 1019.7 1015.8 0.0
25/07:00pm 22.2 23.4 19.0 82 2.1 SE 11 15 6 8 1019.5 1015.6 0.0
25/06:30pm 22.2 23.7 19.0 82 2.1 E 9 13 5 7 1018.8 1015.0 0.0
25/06:00pm 22.5 23.8 19.3 82 2.1 SE 11 15 6 8 1018.9 1015.1 0.0
25/05:30pm 22.8 24.1 19.2 80 2.3 SE 11 13 6 7 1018.7 1014.9 0.0
25/05:00pm 23.0 23.4 19.0 78 2.6 ESE 15 19 8 10 1018.3 1014.5 0.0
25/04:30pm 23.4 24.3 19.3 78 2.7 ESE 13 17 7 9 1018.0 1014.1 0.0
25/04:00pm 23.3 24.1 19.0 77 2.8 ESE 13 17 7 9 1017.6 1013.7 0.0
25/03:30pm 23.3 24.1 19.0 77 2.8 ESE 13 17 7 9 1017.4 1013.5 0.0
25/03:00pm 23.4 24.6 19.1 77 2.8 ESE 11 15 6 8 1017.5 1013.6 0.0
25/02:30pm 23.6 25.1 18.9 75 3.1 SE 9 15 5 8 1017.4 1013.5 0.0
25/02:00pm 23.5 24.2 18.8 75 3.1 ESE 13 17 7 9 1017.4 1013.5 0.0
25/01:30pm 23.8 25.1 19.3 76 2.9 SE 11 17 6 9 1017.5 1013.6 0.0
25/01:00pm 23.3 24.4 18.8 76 2.9 E 11 15 6 8 1017.6 1013.7 0.0
25/12:30pm 23.8 25.2 18.7 73 3.3 ESE 9 17 5 9 1018.0 1014.1 0.0
25/12:00pm 23.7 25.0 18.4 72 3.4 E 9 15 5 8 1018.2 1014.3 0.0
25/11:30am 23.8 25.0 18.2 71 3.6 E 9 13 5 7 1018.5 1014.7 0.0
25/11:00am 24.0 24.9 17.5 67 4.1 ESE 9 15 5 8 1018.8 1015.0 0.0
25/10:30am 23.2 24.1 18.3 74 3.2 SE 11 13 6 7 1019.2 1015.3 0.0
25/10:00am 22.7 23.6 18.3 76 2.8 ESE 11 15 6 8 1019.3 1015.4 0.0
25/09:30am 22.2 23.6 18.6 80 2.3 ESE 9 13 5 7 1019.3 1015.4 0.0
25/09:00am 21.3 23.7 18.7 85 1.7 SSE 4 9 2 5 1019.5 1015.6 6.8
25/08:30am 20.7 23.0 19.4 92 0.8 SSE 6 9 3 5 1019.2 1015.3 6.8
25/08:00am 20.2 23.4 18.9 92 0.8 CALM 0 0 0 0 1018.9 1015.1 6.8
25/07:30am 20.0 23.1 18.7 92 0.8 CALM 0 0 0 0 1018.7 1014.9 6.8
25/07:00am 19.8 21.7 18.6 93 0.8 SE 6 7 3 4 1018.4 1014.6 6.8
25/06:30am 19.3 22.1 18.8 97 0.3 SE 2 7 1 4 1018.1 1014.2 6.8
25/06:00am 19.2 21.9 18.7 97 0.3 SE 2 7 1 4 1018.1 1014.2 6.8
25/05:30am 19.4 21.8 18.7 96 0.4 SE 4 7 2 4 1017.7 1013.8 6.8
25/05:00am 19.6 21.7 18.9 96 0.4 SE 6 9 3 5 1017.6 1013.7 6.8
25/04:30am 19.6 21.3 18.6 94 0.6 SE 7 9 4 5 1017.5 1013.6 6.8
25/04:00am 20.0 21.1 18.8 93 0.8 SSE 11 13 6 7 1017.2 1013.4 6.8
25/03:30am 19.9 21.4 18.9 94 0.6 ESE 9 11 5 6 1017.0 1013.2 6.8
25/03:00am 20.0 21.2 19.0 94 0.6 ESE 11 15 6 8 1017.0 1013.2 6.8
25/02:30am 19.9 20.9 18.7 93 0.8 ESE 11 17 6 9 1017.1 1013.3 6.8
25/02:00am 20.2 20.6 19.0 93 0.8 ESE 15 20 8 11 1017.0 1013.2 6.8
25/01:30am 20.4 21.5 18.9 91 1.0 SE 11 15 6 8 1017.0 1013.2 6.8
25/01:00am 21.0 22.7 18.6 86 1.5 E 7 9 4 5 1016.9 1013.1 6.8
25/12:30am 21.6 23.8 19.5 88 1.4 ENE 7 11 4 6 1016.9 1013.1 6.8
25/12:00am 21.6 25.4 20.1 91 1.0 CALM 0 0 0 0 1016.7 1012.8 6.8
 
Date/Time
WST
Temp
°C
App
Temp
°C
Dew
Point
°C
Rel
Hum
%
Delta-T
°C
Wind Press
QNH
hPa
Press
MSL
hPa
Rain since
9am
mm
Dir  Spd
km/h
Gust
km/h
Spd
kts
Gust
kts
24/11:30pm 21.8 25.2 19.4 86 1.6 CALM 0 0 0 0 1016.8 1012.9 6.8
24/11:00pm 21.5 25.0 19.6 89 1.2 CALM 0 0 0 0 1017.0 1013.2 6.8
24/10:30pm 21.7 25.5 20.2 91 1.0 CALM 0 0 0 0 1017.0 1013.2 6.6
24/10:00pm 21.8 25.4 19.7 88 1.4 CALM 0 0 0 0 1017.1 1013.3 6.6
24/09:30pm 21.7 25.1 19.4 87 1.5 CALM 0 0 0 0 1017.2 1013.4 6.6
24/09:00pm 21.5 22.8 19.4 88 1.4 NNE 11 13 6 7 1017.2 1013.4 6.6
24/08:30pm 21.5 21.2 19.1 86 1.6 NNE 19 26 10 14 1017.1 1013.3 6.6
24/08:04pm 21.5 22.8 19.2 87 1.5 NNE 11 15 6 8 1017.2 - 6.2
24/08:01pm 21.4 23.1 19.3 88 1.4 NNE 9 15 5 8 1017.4 1013.5 6.2
24/08:00pm 21.3 23.0 19.4 89 1.2 NNE 9 15 5 8 1017.5 1013.6 6.2
24/07:41pm 20.8 19.7 18.7 88 1.4 WNW 22 35 12 19 1017.9 1014.0 5.0
24/07:30pm 21.6 23.8 19.5 88 1.4 ENE 7 11 4 6 1017.2 1013.4 2.2
24/07:26pm 21.8 24.2 19.7 88 1.4 ENE 6 11 3 6 1016.9 1013.1 2.2
24/07:00pm 21.2 23.8 19.3 89 1.2 ENE 4 9 2 5 1016.8 1012.9 2.2
24/06:59pm 21.3 24.0 19.4 89 1.2 ENE 4 9 2 5 1016.8 1012.9 2.2
24/06:34pm 21.3 23.4 19.4 89 1.2 E 7 13 4 7 1016.3 - 2.2
24/06:30pm 21.2 23.4 19.7 91 1.0 ENE 7 13 4 7 1016.4 1012.5 2.2
24/06:16pm 20.8 22.4 19.1 90 1.1 N 9 15 5 8 1016.2 - 2.0
24/06:00pm 21.2 22.5 18.4 84 1.8 N 9 17 5 9 1016.7 1012.8 0.4
24/05:30pm 21.1 22.4 18.5 85 1.7 E 9 13 5 7 1016.2 1012.3 0.4

Other Formats:

Comma delimited format used in spreadsheet applications
http://www.bom.gov.au/fwo/IDW60801/IDW60801.99313.axf

JavaScript Object Notation format (JSON) in row-major order
http://www.bom.gov.au/fwo/IDW60801/IDW60801.99313.json